Time;durP1;ratioP1;P1;durP2;ratioP2;P2;SDS_P1;SDS_P2;PMS_P1;PMS_P2;Temp;Humidity;BMP_temperature;BMP_pressure;BME280_temperature;BME280_humidity;BME280_pressure;Samples;Min_cycle;Max_cycle;Signal;HPM_P1;HPM_P2
2022/10/13 00:00:00;;;;;;;;;;;;;;;6.93;92.61;97309.22;1740996;82;20389;-90
2022/10/13 00:02:26;;;;;;;;;;;;;;;6.93;92.71;97312.63;1755020;81;20096;-91
2022/10/13 00:04:52;;;;;;;;;;;;;;;6.94;92.68;97313.44;1739172;82;20083;-90
2022/10/13 00:07:17;;;;;;;;;;;;;;;6.95;92.69;97316.36;1742756;81;20088;-91
2022/10/13 00:09:43;;;;;;;;;;;;;;;6.97;92.75;97313.16;1735003;81;20119;-89
2022/10/13 00:12:08;;;;;;;;;;;;;;;7.00;92.73;97313.39;1749325;82;20089;-90
2022/10/13 00:14:34;;;;;;;;;;;;;;;7.01;92.60;97309.38;1738097;81;20101;-90
2022/10/13 00:16:59;;;;;;;;;;;;;;;7.00;92.64;97309.03;1739212;81;20100;-90
2022/10/13 00:19:26;;;;;;;;;;;;;;;7.00;92.61;97310.33;1741820;81;20231;-90
2022/10/13 00:21:52;;;;;;;;;;;;;;;6.97;92.58;97306.70;1754487;81;20356;-90
2022/10/13 00:24:17;;;;;;;;;;;;;;;6.95;92.59;97312.48;1755024;81;20120;-90
2022/10/13 00:26:43;;;;;;;;;;;;;;;6.95;92.60;97312.48;1751304;82;20323;-91
2022/10/13 00:29:08;;;;;;;;;;;;;;;6.94;92.42;97309.56;1743290;81;20140;-90
2022/10/13 00:31:34;;;;;;;;;;;;;;;6.94;92.31;97305.69;1743222;82;20116;-90
2022/10/13 00:34:00;;;;;;;;;;;;;;;6.93;92.47;97304.87;1731664;81;20097;-90
2022/10/13 00:36:27;;;;;;;;;;;;;;;6.92;92.49;97304.53;1737284;81;20116;-90
2022/10/13 00:38:53;;;;;;;;;;;;;;;6.93;92.56;97302.28;1705261;83;20095;-90
2022/10/13 00:41:19;;;;;;;;;;;;;;;6.95;92.66;97306.50;1708061;83;20158;-90
2022/10/13 00:44:02;;;;;;;;;;;;;;;6.97;92.64;97305.88;1718590;83;20101;-90
2022/10/13 00:46:31;;;;;;;;;;;;;;;6.98;92.62;97307.52;1705910;83;20087;-88
2022/10/13 00:49:08;;;;;;;;;;;;;;;6.97;92.51;97306.70;1708978;83;20173;-88
2022/10/13 00:51:40;;;;;;;;;;;;;;;6.94;92.46;97304.39;1709617;83;20363;-88
2022/10/13 00:54:06;;;;;;;;;;;;;;;6.95;92.55;97300.04;1708928;83;20099;-88
2022/10/13 00:56:31;;;;;;;;;;;;;;;6.95;92.54;97300.04;1684402;83;20123;-88
2022/10/13 00:58:57;;;;;;;;;;;;;;;6.95;92.49;97302.15;1704207;83;20068;-88
2022/10/13 01:01:23;;;;;;;;;;;;;;;6.97;92.51;97302.82;1706094;83;20104;-88
2022/10/13 01:03:48;;;;;;;;;;;;;;;6.95;92.33;97292.29;1727384;83;20331;-88
2022/10/13 01:06:14;;;;;;;;;;;;;;;6.92;92.45;97288.22;1719824;83;20156;-88
2022/10/13 01:08:40;;;;;;;;;;;;;;;6.90;92.52;97282.38;1708981;83;20113;-88
2022/10/13 01:11:36;;;;;;;;;;;;;;;6.86;92.52;97284.42;1685885;84;20110;-88
2022/10/13 01:14:12;;;;;;;;;;;;;;;6.82;92.63;97284.80;1687824;83;20440;-88
2022/10/13 01:17:17;;;;;;;;;;;;;;;6.76;92.92;97281.02;1724324;83;20091;-88
2022/10/13 01:20:01;;;;;;;;;;;;;;;6.71;93.06;97280.61;1708652;83;20083;-88
2022/10/13 01:22:37;;;;;;;;;;;;;;;6.68;93.24;97282.66;1709372;83;20093;-88
2022/10/13 01:25:09;;;;;;;;;;;;;;;6.64;93.34;97276.92;1706854;83;20122;-88
2022/10/13 01:27:50;;;;;;;;;;;;;;;6.61;93.56;97279.78;1720557;83;20342;-88
2022/10/13 01:30:18;;;;;;;;;;;;;;;6.60;93.73;97280.73;1715762;83;20148;-88
2022/10/13 01:32:50;;;;;;;;;;;;;;;6.60;93.87;97274.27;1707249;83;20099;-88
2022/10/13 01:35:37;;;;;;;;;;;;;;;6.59;93.93;97274.75;1711727;83;20164;-88
2022/10/13 01:38:12;;;;;;;;;;;;;;;6.59;93.92;97271.36;1720378;81;20147;-87
2022/10/13 01:41:00;;;;;;;;;;;;;;;6.61;94.06;97268.16;1723673;83;20082;-88
2022/10/13 01:43:36;;;;;;;;;;;;;;;6.62;94.03;97267.20;1700715;82;20155;-88
2022/10/13 01:46:11;;;;;;;;;;;;;;;6.63;94.04;97264.48;1700591;83;20126;-87
2022/10/13 01:48:38;;;;;;;;;;;;;;;6.62;94.03;97257.69;1722783;83;20137;-89
2022/10/13 01:51:04;;;;;;;;;;;;;;;6.65;94.02;97263.05;1709357;83;20316;-89
2022/10/13 01:53:30;;;;;;;;;;;;;;;6.68;93.92;97260.23;1719998;83;20099;-87
2022/10/13 01:55:58;;;;;;;;;;;;;;;6.71;93.86;97256.55;1708609;83;20345;-89
2022/10/13 01:58:26;;;;;;;;;;;;;;;6.76;93.63;97254.36;1709299;83;20123;-88
2022/10/13 02:01:14;;;;;;;;;;;;;;;6.78;93.49;97253.27;1718291;83;20153;-88
2022/10/13 02:03:43;;;;;;;;;;;;;;;6.81;93.64;97250.41;1711453;82;20147;-88
2022/10/13 02:06:16;;;;;;;;;;;;;;;6.88;93.58;97253.28;1707479;83;20091;-89
2022/10/13 02:08:48;;;;;;;;;;;;;;;6.90;93.54;97250.08;1723989;83;20174;-88
2022/10/13 02:11:18;;;;;;;;;;;;;;;6.90;93.25;97248.78;1713967;83;20091;-88
2022/10/13 02:13:59;;;;;;;;;;;;;;;6.88;93.16;97254.09;1707969;83;20170;-88
2022/10/13 02:16:27;;;;;;;;;;;;;;;6.88;93.14;97253.28;1720500;82;20124;-88
2022/10/13 02:18:52;;;;;;;;;;;;;;;6.88;93.01;97248.11;1708237;82;20098;-88
2022/10/13 02:21:18;;;;;;;;;;;;;;;6.86;93.10;97246.96;1711382;83;20154;-88
2022/10/13 02:23:44;;;;;;;;;;;;;;;6.85;93.09;97248.39;1709993;82;20126;-88
2022/10/13 02:26:09;;;;;;;;;;;;;;;6.82;92.85;97243.48;1706079;83;20135;-88
2022/10/13 02:28:36;;;;;;;;;;;;;;;6.81;92.77;97245.72;1709761;83;20118;-88
2022/10/13 02:31:03;;;;;;;;;;;;;;;6.77;92.79;97243.89;1716270;83;20101;-88
2022/10/13 02:33:28;;;;;;;;;;;;;;;6.77;92.99;97236.14;1715194;82;20111;-88
2022/10/13 02:35:54;;;;;;;;;;;;;;;6.76;93.13;97238.39;1716324;83;20326;-88
2022/10/13 02:38:19;;;;;;;;;;;;;;;6.75;92.95;97235.95;1718376;83;20187;-88
2022/10/13 02:40:45;;;;;;;;;;;;;;;6.72;92.65;97234.45;1709697;83;20091;-88
2022/10/13 02:43:11;;;;;;;;;;;;;;;6.70;92.45;97238.13;1707923;83;20131;-88
2022/10/13 02:45:36;;;;;;;;;;;;;;;6.69;92.49;97236.50;1718302;83;20101;-88
2022/10/13 02:48:02;;;;;;;;;;;;;;;6.67;92.48;97233.22;1703719;83;20095;-87
2022/10/13 02:50:28;;;;;;;;;;;;;;;6.63;92.37;97232.68;1662237;85;20107;-88
2022/10/13 02:52:54;;;;;;;;;;;;;;;6.60;92.01;97231.19;1663068;85;20114;-88
2022/10/13 02:55:19;;;;;;;;;;;;;;;6.58;91.78;97229.22;1700205;83;20106;-88
2022/10/13 02:57:45;;;;;;;;;;;;;;;6.54;91.76;97220.60;1704109;83;20083;-88
2022/10/13 03:00:11;;;;;;;;;;;;;;;6.56;91.53;97229.84;1702182;83;20131;-88
2022/10/13 03:02:37;;;;;;;;;;;;;;;6.54;91.32;97222.70;1701925;83;20123;-89
2022/10/13 03:05:03;;;;;;;;;;;;;;;6.49;90.92;97217.59;1703207;83;20091;-88
2022/10/13 03:07:28;;;;;;;;;;;;;;;6.42;90.98;97216.52;1706197;83;20126;-88
2022/10/13 03:09:54;;;;;;;;;;;;;;;6.37;90.99;97219.51;1687059;84;20435;-88
2022/10/13 03:12:19;;;;;;;;;;;;;;;6.34;90.90;97217.17;1688833;84;20303;-87
2022/10/13 03:14:45;;;;;;;;;;;;;;;6.30;90.53;97219.69;1723834;83;20110;-88
2022/10/13 03:17:11;;;;;;;;;;;;;;;6.26;90.16;97215.75;1697187;83;20154;-88
2022/10/13 03:19:36;;;;;;;;;;;;;;;6.25;89.92;97219.28;1681665;85;20105;-88
2022/10/13 03:22:02;;;;;;;;;;;;;;;6.22;89.52;97217.80;1670205;84;20089;-87
2022/10/13 03:24:27;;;;;;;;;;;;;;;6.22;89.22;97216.50;1708507;83;20102;-88
2022/10/13 03:26:53;;;;;;;;;;;;;;;6.20;88.73;97216.30;1711924;83;20345;-88
2022/10/13 03:29:19;;;;;;;;;;;;;;;6.16;88.57;97214.44;1711040;83;20150;-88
2022/10/13 03:31:44;;;;;;;;;;;;;;;6.12;88.41;97216.14;1725870;83;20102;-88
2022/10/13 03:34:10;;;;;;;;;;;;;;;6.08;88.33;97214.30;1713468;83;20170;-88
2022/10/13 03:36:36;;;;;;;;;;;;;;;6.05;88.65;97211.19;1692569;82;20328;-87
2022/10/13 03:39:02;;;;;;;;;;;;;;;6.01;88.35;97215.30;1703584;83;20119;-88
2022/10/13 03:41:28;;;;;;;;;;;;;;;5.96;88.07;97217.94;1695240;83;20103;-88
2022/10/13 03:43:53;;;;;;;;;;;;;;;5.92;88.32;97226.42;1697258;83;20098;-88
2022/10/13 03:46:19;;;;;;;;;;;;;;;5.86;88.38;97225.64;1721265;83;20137;-88
2022/10/13 03:48:44;;;;;;;;;;;;;;;5.85;88.63;97227.03;1695768;83;20125;-88
2022/10/13 03:51:13;;;;;;;;;;;;;;;5.82;88.76;97226.83;1710718;83;20363;-88
2022/10/13 03:53:39;;;;;;;;;;;;;;;5.80;88.81;97222.75;1713852;83;20350;-88
2022/10/13 03:56:06;;;;;;;;;;;;;;;5.76;89.01;97221.39;1710773;83;20116;-88
2022/10/13 03:58:32;;;;;;;;;;;;;;;5.75;89.11;97221.86;1682751;85;20329;-88
2022/10/13 04:01:01;;;;;;;;;;;;;;;5.75;89.46;97218.00;1720896;82;20120;-87
2022/10/13 04:03:27;;;;;;;;;;;;;;;5.78;89.47;97219.49;1735264;82;20104;-88
2022/10/13 04:05:52;;;;;;;;;;;;;;;5.78;89.32;97220.30;1720002;82;20134;-87
2022/10/13 04:08:18;;;;;;;;;;;;;;;5.82;89.48;97223.43;1664150;85;20151;-87
2022/10/13 04:10:43;;;;;;;;;;;;;;;5.84;89.63;97219.77;1664184;85;20132;-88
2022/10/13 04:13:09;;;;;;;;;;;;;;;5.89;89.92;97216.81;1718192;82;20098;-88
2022/10/13 04:15:36;;;;;;;;;;;;;;;5.92;89.83;97212.23;1716030;82;20115;-88
2022/10/13 04:18:02;;;;;;;;;;;;;;;5.94;89.71;97215.97;1729108;82;20385;-88
2022/10/13 04:20:27;;;;;;;;;;;;;;;5.96;89.85;97205.86;1726077;82;20116;-89
2022/10/13 04:22:53;;;;;;;;;;;;;;;5.99;89.91;97206.06;1723009;82;20323;-88
2022/10/13 04:25:18;;;;;;;;;;;;;;;6.01;89.96;97202.39;1740431;82;20085;-88
2022/10/13 04:27:46;;;;;;;;;;;;;;;6.05;90.03;97204.73;1727627;82;20103;-88
2022/10/13 04:30:11;;;;;;;;;;;;;;;6.07;90.29;97199.78;1723142;82;20350;-88
2022/10/13 04:32:37;;;;;;;;;;;;;;;6.10;90.22;97199.98;1724948;82;20153;-89
2022/10/13 04:35:03;;;;;;;;;;;;;;;6.11;90.16;97200.31;1707275;82;20164;-88
2022/10/13 04:37:29;;;;;;;;;;;;;;;6.08;90.33;97200.11;1722266;82;20154;-87
2022/10/13 04:39:55;;;;;;;;;;;;;;;6.07;90.68;97198.48;1722850;82;20312;-88
2022/10/13 04:42:20;;;;;;;;;;;;;;;6.07;90.71;97195.91;1753798;81;20355;-87
2022/10/13 04:44:46;;;;;;;;;;;;;;;6.06;90.87;97200.73;1744726;81;20146;-88
2022/10/13 04:47:11;;;;;;;;;;;;;;;6.05;90.88;97201.67;1739328;81;20093;-88
2022/10/13 04:49:37;;;;;;;;;;;;;;;6.03;91.08;97197.60;1741819;81;20081;-88
2022/10/13 04:52:04;;;;;;;;;;;;;;;6.00;91.23;97191.73;1743024;81;20134;-88
2022/10/13 04:54:30;;;;;;;;;;;;;;;5.99;91.44;97192.69;1756008;81;20492;-88
2022/10/13 04:56:58;;;;;;;;;;;;;;;5.98;91.69;97191.53;1758732;81;20097;-88
2022/10/13 04:59:23;;;;;;;;;;;;;;;5.99;91.77;97187.52;1722796;81;20132;-88
2022/10/13 05:01:49;;;;;;;;;;;;;;;6.03;92.19;97192.44;1739108;81;20118;-88
2022/10/13 05:04:14;;;;;;;;;;;;;;;6.06;92.57;97182.67;1744837;81;20128;-88
2022/10/13 05:06:42;;;;;;;;;;;;;;;6.12;92.88;97190.34;1743021;81;20175;-88
2022/10/13 05:09:10;;;;;;;;;;;;;;;6.19;93.06;97190.16;1741306;81;20115;-88
2022/10/13 05:11:36;;;;;;;;;;;;;;;6.26;93.16;97197.69;1731762;81;20349;-88
2022/10/13 05:14:01;;;;;;;;;;;;;;;6.32;93.34;97190.69;1741103;82;20077;-88
2022/10/13 05:16:29;;;;;;;;;;;;;;;6.41;93.49;97195.52;1759118;81;20336;-88
2022/10/13 05:18:55;;;;;;;;;;;;;;;6.48;93.53;97194.02;1734176;81;20362;-88
2022/10/13 05:21:23;;;;;;;;;;;;;;;6.55;93.56;97195.94;1762334;81;20125;-88
2022/10/13 05:23:48;;;;;;;;;;;;;;;6.60;93.69;97195.52;1751273;81;20328;-88
2022/10/13 05:26:15;;;;;;;;;;;;;;;6.65;93.79;97197.67;1732344;81;20141;-88
2022/10/13 05:28:41;;;;;;;;;;;;;;;6.66;93.84;97196.25;1738478;81;20116;-88
2022/10/13 05:31:11;;;;;;;;;;;;;;;6.69;93.75;97197.77;1750311;81;20082;-88
2022/10/13 05:33:37;;;;;;;;;;;;;;;6.72;93.74;97196.19;1755732;81;20093;-89
2022/10/13 05:36:06;;;;;;;;;;;;;;;6.76;93.59;97202.23;1735395;82;20101;-88
2022/10/13 05:38:32;;;;;;;;;;;;;;;6.79;93.65;97207.59;1751161;81;20101;-88
2022/10/13 05:41:05;;;;;;;;;;;;;;;6.84;93.65;97207.54;1762517;81;20079;-87
2022/10/13 05:43:31;;;;;;;;;;;;;;;6.88;93.60;97202.42;1751282;81;20102;-88
2022/10/13 05:45:58;;;;;;;;;;;;;;;6.91;93.50;97206.49;1744899;81;20124;-88
2022/10/13 05:48:23;;;;;;;;;;;;;;;6.95;93.67;97210.90;1757225;81;20321;-88
2022/10/13 05:50:49;;;;;;;;;;;;;;;6.99;93.73;97206.60;1757320;81;20093;-88
2022/10/13 05:53:16;;;;;;;;;;;;;;;6.99;93.65;97204.02;1745178;81;20369;-88
2022/10/13 05:55:41;;;;;;;;;;;;;;;6.99;93.58;97204.49;1743010;81;20164;-88
2022/10/13 05:58:07;;;;;;;;;;;;;;;7.02;93.46;97206.83;1735064;81;20321;-87
2022/10/13 06:00:33;;;;;;;;;;;;;;;7.03;93.26;97212.33;1741937;81;20097;-89
2022/10/13 06:03:05;;;;;;;;;;;;;;;7.05;93.33;97213.00;1742990;81;20104;-89
2022/10/13 06:05:31;;;;;;;;;;;;;;;7.06;93.29;97210.75;1759084;81;20109;-88
2022/10/13 06:07:57;;;;;;;;;;;;;;;7.06;93.28;97207.69;1740468;82;20361;-88
2022/10/13 06:10:22;;;;;;;;;;;;;;;7.07;93.50;97209.32;1743097;82;20101;-87
2022/10/13 06:12:48;;;;;;;;;;;;;;;7.10;93.63;97213.39;1740116;81;20081;-88
2022/10/13 06:15:13;;;;;;;;;;;;;;;7.11;93.57;97215.83;1755729;81;20094;-87
2022/10/13 06:17:39;;;;;;;;;;;;;;;7.13;93.55;97216.98;1737330;82;20354;-89
2022/10/13 06:20:05;;;;;;;;;;;;;;;7.14;93.59;97217.31;1748163;81;20083;-88
2022/10/13 06:22:32;;;;;;;;;;;;;;;7.17;93.76;97220.46;1743387;81;20378;-89
2022/10/13 06:24:57;;;;;;;;;;;;;;;7.21;93.98;97217.11;1748994;81;20393;-88
2022/10/13 06:27:23;;;;;;;;;;;;;;;7.24;94.13;97218.13;1733681;81;20148;-89
2022/10/13 06:29:49;;;;;;;;;;;;;;;7.27;94.13;97220.42;1740551;81;20101;-88
2022/10/13 06:32:14;;;;;;;;;;;;;;;7.26;94.28;97215.39;1745850;81;20119;-88
2022/10/13 06:34:40;;;;;;;;;;;;;;;7.26;94.44;97216.69;1744751;81;20107;-88
2022/10/13 06:37:05;;;;;;;;;;;;;;;7.27;94.47;97215.73;1749149;81;20406;-88
2022/10/13 06:39:31;;;;;;;;;;;;;;;7.29;94.71;97217.21;1724669;82;20114;-88
2022/10/13 06:41:56;;;;;;;;;;;;;;;7.34;94.65;97216.81;1717852;82;20153;-88
2022/10/13 06:44:22;;;;;;;;;;;;;;;7.37;94.91;97212.64;1703731;82;20343;-88
2022/10/13 06:46:48;;;;;;;;;;;;;;;7.39;94.89;97208.14;1717402;82;20190;-88
2022/10/13 06:49:13;;;;;;;;;;;;;;;7.41;94.92;97206.23;1724026;82;20093;-88
2022/10/13 06:51:39;;;;;;;;;;;;;;;7.45;95.04;97209.67;1703380;83;20330;-88
2022/10/13 06:54:05;;;;;;;;;;;;;;;7.50;95.08;97209.27;1721496;83;20355;-88
2022/10/13 06:56:31;;;;;;;;;;;;;;;7.58;95.27;97209.36;1713895;82;20117;-87
2022/10/13 06:58:57;;;;;;;;;;;;;;;7.66;95.31;97194.44;1724084;83;20133;-89
2022/10/13 07:01:22;;;;;;;;;;;;;;;7.72;95.59;97192.55;1719365;83;20081;-88
2022/10/13 07:03:49;;;;;;;;;;;;;;;7.83;95.78;97192.38;1716095;82;20086;-88
2022/10/13 07:06:14;;;;;;;;;;;;;;;7.96;95.73;97196.70;1711205;82;20125;-88
2022/10/13 07:08:40;;;;;;;;;;;;;;;8.05;95.62;97195.84;1718837;83;20370;-88
2022/10/13 07:11:08;;;;;;;;;;;;;;;8.12;95.53;97190.88;1703281;82;20112;-89
2022/10/13 07:13:34;;;;;;;;;;;;;;;8.18;95.60;97189.02;1723880;82;20094;-88
2022/10/13 07:16:04;;;;;;;;;;;;;;;8.26;96.00;97195.55;1723864;83;20125;-88
2022/10/13 07:18:30;;;;;;;;;;;;;;;8.34;95.78;97196.16;1723963;82;20093;-88
2022/10/13 07:20:57;;;;;;;;;;;;;;;8.38;95.57;97197.00;1706722;83;20089;-88
2022/10/13 07:23:22;;;;;;;;;;;;;;;8.48;95.71;97193.05;1722910;82;20295;-88
2022/10/13 07:25:48;;;;;;;;;;;;;;;8.56;95.65;97189.23;1712971;83;20145;-88
2022/10/13 07:28:14;;;;;;;;;;;;;;;8.64;95.56;97188.50;1717182;82;20098;-88
2022/10/13 07:30:39;;;;;;;;;;;;;;;8.72;95.61;97191.13;1712174;83;20117;-89
2022/10/13 07:33:05;;;;;;;;;;;;;;;8.80;95.30;97190.40;1706798;82;20125;-89
2022/10/13 07:35:31;;;;;;;;;;;;;;;8.88;95.19;97194.33;1707947;83;20101;-89
2022/10/13 07:37:57;;;;;;;;;;;;;;;8.96;95.31;97190.03;1715054;81;20112;-88
2022/10/13 07:40:23;;;;;;;;;;;;;;;9.03;95.13;97188.93;1729768;81;20120;-88
2022/10/13 07:42:48;;;;;;;;;;;;;;;9.09;94.95;97187.50;1714567;83;20115;-89
2022/10/13 07:45:14;;;;;;;;;;;;;;;9.11;94.91;97183.81;1708033;83;20071;-89
2022/10/13 07:47:39;;;;;;;;;;;;;;;9.15;94.75;97190.80;1712723;83;20110;-88
2022/10/13 07:50:05;;;;;;;;;;;;;;;9.20;94.56;97172.98;1724908;83;20116;-89
2022/10/13 07:52:33;;;;;;;;;;;;;;;9.26;94.37;97176.25;1714896;83;20109;-89
2022/10/13 07:55:00;;;;;;;;;;;;;;;9.33;94.40;97173.39;1696127;84;20079;-88
2022/10/13 07:57:26;;;;;;;;;;;;;;;9.39;94.19;97172.77;1697478;83;20097;-88
2022/10/13 07:59:52;;;;;;;;;;;;;;;9.45;94.08;97164.38;1732102;83;20338;-88
2022/10/13 08:02:18;;;;;;;;;;;;;;;9.51;94.22;97162.45;1716341;83;20347;-89
2022/10/13 08:04:43;;;;;;;;;;;;;;;9.58;94.15;97163.44;1724910;83;20173;-88
2022/10/13 08:07:10;;;;;;;;;;;;;;;9.63;94.46;97162.99;1712403;83;20340;-89
2022/10/13 08:09:36;;;;;;;;;;;;;;;9.68;94.22;97160.73;1726084;83;20125;-88
2022/10/13 08:12:01;;;;;;;;;;;;;;;9.73;94.07;97161.55;1725633;83;20172;-88
2022/10/13 08:14:27;;;;;;;;;;;;;;;9.79;94.12;97158.34;1700231;84;20124;-88
2022/10/13 08:16:53;;;;;;;;;;;;;;;9.87;94.23;97156.57;1708000;83;20103;-88
2022/10/13 08:19:20;;;;;;;;;;;;;;;9.97;94.45;97160.83;1726490;83;20087;-88
2022/10/13 08:21:47;;;;;;;;;;;;;;;10.08;94.34;97161.31;1722742;83;20111;-89
2022/10/13 08:24:13;;;;;;;;;;;;;;;10.18;94.30;97155.98;1726215;83;20382;-88
2022/10/13 08:26:39;;;;;;;;;;;;;;;10.29;94.50;97157.51;1719263;83;20478;-89
2022/10/13 08:29:06;;;;;;;;;;;;;;;10.31;94.21;97157.66;1718231;83;20162;-88
2022/10/13 08:31:31;;;;;;;;;;;;;;;10.38;94.21;97159.13;1728387;83;20157;-88
2022/10/13 08:33:57;;;;;;;;;;;;;;;10.43;93.94;97155.58;1722135;83;20135;-88
2022/10/13 08:36:23;;;;;;;;;;;;;;;10.50;94.05;97150.85;1722921;83;20131;-87
2022/10/13 08:38:49;;;;;;;;;;;;;;;10.60;93.47;97156.39;1723566;83;20084;-89
2022/10/13 08:41:21;;;;;;;;;;;;;;;10.68;93.26;97153.28;1738949;81;20159;-89
2022/10/13 08:44:02;;;;;;;;;;;;;;;10.77;92.55;97160.61;1740172;81;20152;-87
2022/10/13 08:46:31;;;;;;;;;;;;;;;10.86;92.84;97157.00;1714858;82;21133;-89
2022/10/13 08:48:57;;;;;;;;;;;;;;;10.93;92.66;97146.78;1754052;81;20118;-88
2022/10/13 08:51:22;;;;;;;;;;;;;;;10.99;91.63;97140.41;1745542;81;20285;-89
2022/10/13 08:53:48;;;;;;;;;;;;;;;11.04;91.88;97143.81;1746991;81;20117;-89
2022/10/13 08:56:20;;;;;;;;;;;;;;;11.10;92.08;97136.17;1746990;81;20192;-89
2022/10/13 08:58:47;;;;;;;;;;;;;;;11.17;91.60;97141.52;1742930;82;20100;-88
2022/10/13 09:01:18;;;;;;;;;;;;;;;11.24;90.47;97139.07;1745580;81;20112;-88
2022/10/13 09:04:09;;;;;;;;;;;;;;;11.32;90.82;97133.83;1746494;81;20094;-89
2022/10/13 09:06:41;;;;;;;;;;;;;;;11.41;89.24;97141.45;1745110;81;20313;-88
2022/10/13 09:09:08;;;;;;;;;;;;;;;11.53;89.00;97138.46;1742992;81;20100;-89
2022/10/13 09:11:39;;;;;;;;;;;;;;;11.62;89.25;97136.16;1757890;81;20096;-89
2022/10/13 09:14:06;;;;;;;;;;;;;;;11.69;89.81;97129.28;1745825;82;20449;-88
2022/10/13 09:16:37;;;;;;;;;;;;;;;11.75;89.62;97131.71;1740466;81;20350;-88
2022/10/13 09:19:21;;;;;;;;;;;;;;;11.82;89.28;97136.09;1742277;81;20388;-89
2022/10/13 09:21:54;;;;;;;;;;;;;;;11.91;88.37;97131.66;1751232;81;20124;-88
2022/10/13 09:24:21;;;;;;;;;;;;;;;11.99;88.47;97133.70;1744819;81;20136;-89
2022/10/13 09:26:47;;;;;;;;;;;;;;;12.13;88.46;97133.95;1752831;81;20092;-89
2022/10/13 09:29:17;;;;;;;;;;;;;;;12.21;89.39;97128.70;1755333;81;20095;-89
2022/10/13 09:31:43;;;;;;;;;;;;;;;12.31;89.06;97134.48;1749065;81;20338;-89
2022/10/13 09:34:21;;;;;;;;;;;;;;;12.35;90.00;97131.84;1742674;81;20080;-88
2022/10/13 09:37:02;;;;;;;;;;;;;;;12.41;88.72;97127.74;1750715;81;20108;-89
2022/10/13 09:39:30;;;;;;;;;;;;;;;12.50;88.92;97123.58;1755881;81;20321;-89
2022/10/13 09:42:24;;;;;;;;;;;;;;;12.65;89.70;97128.83;1716976;83;20115;-89
2022/10/13 09:44:59;;;;;;;;;;;;;;;12.76;89.63;97130.22;1694416;83;20094;-89
2022/10/13 09:47:25;;;;;;;;;;;;;;;12.87;88.66;97133.70;1705398;84;20141;-89
2022/10/13 09:49:59;;;;;;;;;;;;;;;12.92;88.43;97130.06;1713931;83;20398;-89
2022/10/13 09:52:25;;;;;;;;;;;;;;;12.98;87.35;97127.23;1712143;83;20103;-88
2022/10/13 09:54:51;;;;;;;;;;;;;;;13.05;86.36;97123.73;1718287;83;20150;-89
2022/10/13 09:57:36;;;;;;;;;;;;;;;13.10;85.30;97126.61;1713665;83;20387;-89
2022/10/13 10:00:24;;;;;;;;;;;;;;;13.14;84.99;97124.45;1694594;84;20162;-89
2022/10/13 10:02:56;;;;;;;;;;;;;;;13.15;83.76;97119.55;1697641;83;20419;-88
2022/10/13 10:05:25;;;;;;;;;;;;;;;13.19;84.57;97120.36;1715115;83;20110;-87
2022/10/13 10:07:50;;;;;;;;;;;;;;;13.23;83.47;97123.42;1738005;82;20397;-89
2022/10/13 10:10:32;;;;;;;;;;;;;;;13.25;83.71;97112.80;1741967;82;20164;-89
2022/10/13 10:12:59;;;;;;;;;;;;;;;13.26;83.07;97110.00;1743937;82;20124;-87
2022/10/13 10:15:47;;;;;;;;;;;;;;;13.33;82.37;97111.38;1729978;82;20126;-87
2022/10/13 10:18:25;;;;;;;;;;;;;;;13.38;82.38;97107.75;1744350;82;20088;-89
2022/10/13 10:21:24;;;;;;;;;;;;;;;13.46;82.17;97109.75;1729679;82;20102;-88
2022/10/13 10:24:09;;;;;;;;;;;;;;;13.54;82.69;97097.11;1723212;82;20183;-88
2022/10/13 10:26:38;;;;;;;;;;;;;;;13.61;82.74;97099.30;1727869;82;20114;-88
2022/10/13 10:29:23;;;;;;;;;;;;;;;13.64;81.92;97099.42;1736716;82;20146;-88
2022/10/13 10:32:10;;;;;;;;;;;;;;;13.62;82.01;97098.30;1737223;82;20330;-88
2022/10/13 10:34:38;;;;;;;;;;;;;;;13.61;83.39;97096.69;1745179;82;20116;-88
2022/10/13 10:37:26;;;;;;;;;;;;;;;13.58;83.78;97099.67;1720977;81;20171;-88
2022/10/13 10:40:14;;;;;;;;;;;;;;;13.53;83.90;97096.80;1700064;82;20146;-88
2022/10/13 10:42:46;;;;;;;;;;;;;;;13.53;84.21;97099.91;1739617;81;20124;-89
2022/10/13 10:45:15;;;;;;;;;;;;;;;13.57;82.99;97094.13;1755475;81;20092;-89
2022/10/13 10:47:42;;;;;;;;;;;;;;;13.63;84.88;97094.70;1751379;82;20118;-87
2022/10/13 10:50:09;;;;;;;;;;;;;;;13.66;85.02;97091.71;1762834;81;20115;-88
2022/10/13 10:52:54;;;;;;;;;;;;;;;13.67;82.58;97088.63;1745050;82;20168;-88
2022/10/13 10:55:38;;;;;;;;;;;;;;;13.69;81.13;97081.42;1741004;81;20100;-88
2022/10/13 10:58:13;;;;;;;;;;;;;;;13.81;82.89;97080.73;1757972;81;20122;-89
2022/10/13 11:00:51;;;;;;;;;;;;;;;13.89;82.91;97082.44;1749361;81;20110;-88
2022/10/13 11:03:23;;;;;;;;;;;;;;;14.02;82.43;97085.69;1724429;82;20140;-89
2022/10/13 11:06:04;;;;;;;;;;;;;;;14.13;80.87;97084.67;1746752;81;20189;-89
2022/10/13 11:08:45;;;;;;;;;;;;;;;14.16;79.35;97080.09;1751440;81;20102;-88
2022/10/13 11:11:34;;;;;;;;;;;;;;;14.24;79.89;97079.95;1749581;81;20145;-89
2022/10/13 11:14:10;;;;;;;;;;;;;;;14.23;79.64;97073.11;1746155;80;20093;-88
2022/10/13 11:16:59;;;;;;;;;;;;;;;14.20;80.83;97068.27;1740844;81;20120;-88
2022/10/13 11:19:36;;;;;;;;;;;;;;;14.23;79.03;97065.27;1741366;81;20100;-89
2022/10/13 11:22:06;;;;;;;;;;;;;;;14.39;79.14;97060.59;1755197;81;20222;-88
2022/10/13 11:24:46;;;;;;;;;;;;;;;14.57;79.07;97057.53;1736682;81;20170;-88
2022/10/13 11:27:25;;;;;;;;;;;;;;;14.76;80.25;97052.13;1755516;81;20110;-89
2022/10/13 11:29:56;;;;;;;;;;;;;;;14.89;76.07;97051.41;1750046;81;20102;-89
2022/10/13 11:35:12;;;;;;;;;;;;;;;15.07;76.40;97045.67;1732519;81;20087;-88
2022/10/13 11:38:01;;;;;;;;;;;;;;;15.18;78.49;97039.39;1747273;81;20080;-89
2022/10/13 11:40:45;;;;;;;;;;;;;;;15.22;79.13;97046.35;1754070;81;20431;-89
2022/10/13 11:43:43;;;;;;;;;;;;;;;15.15;76.24;97045.02;1749050;81;20154;-88
2022/10/13 11:46:25;;;;;;;;;;;;;;;15.10;76.25;97041.34;1749491;81;20092;-89
2022/10/13 11:49:12;;;;;;;;;;;;;;;15.08;76.47;97039.43;1752399;80;20112;-89
2022/10/13 11:52:00;;;;;;;;;;;;;;;15.01;77.18;97027.13;1734574;82;20109;-89
2022/10/13 11:54:41;;;;;;;;;;;;;;;15.06;77.18;97032.28;1660318;85;20309;-89
2022/10/13 11:57:19;;;;;;;;;;;;;;;15.06;76.86;97033.59;1710246;81;20366;-87
2022/10/13 11:59:46;;;;;;;;;;;;;;;14.95;76.15;97032.31;1737619;82;20096;-89
2022/10/13 12:02:17;;;;;;;;;;;;;;;14.87;76.70;97035.91;1749304;81;20098;-89
2022/10/13 12:04:43;;;;;;;;;;;;;;;14.85;78.29;97032.67;1740450;81;20130;-89
2022/10/13 12:07:10;;;;;;;;;;;;;;;14.83;78.05;97028.64;1738281;81;20120;-89
2022/10/13 12:09:52;;;;;;;;;;;;;;;14.76;78.94;97028.59;1757594;81;20322;-89
2022/10/13 12:12:19;;;;;;;;;;;;;;;14.69;79.16;97024.62;1757559;81;20105;-88
2022/10/13 12:14:46;;;;;;;;;;;;;;;14.63;79.37;97020.64;1736334;81;20090;-88
2022/10/13 12:17:21;;;;;;;;;;;;;;;14.62;77.96;97016.42;1704069;82;20093;-89
2022/10/13 12:19:47;;;;;;;;;;;;;;;14.63;79.83;97010.99;1757417;81;20096;-89
2022/10/13 12:22:13;;;;;;;;;;;;;;;14.68;80.54;97010.44;1733762;81;20401;-89
2022/10/13 12:24:39;;;;;;;;;;;;;;;14.71;77.80;97019.20;1740965;81;20079;-89
2022/10/13 12:27:19;;;;;;;;;;;;;;;14.70;77.96;97009.75;1753600;81;20089;-89
2022/10/13 12:29:44;;;;;;;;;;;;;;;14.77;78.40;97017.12;1750499;81;20091;-89
2022/10/13 12:32:20;;;;;;;;;;;;;;;14.97;78.58;97009.41;1733720;81;20116;-88
2022/10/13 12:34:45;;;;;;;;;;;;;;;15.08;77.84;97005.41;1753577;81;20113;-89
2022/10/13 12:37:29;;;;;;;;;;;;;;;15.10;77.45;97003.40;1771318;80;20149;-89
2022/10/13 12:39:56;;;;;;;;;;;;;;;15.09;77.30;97002.59;1743144;81;20103;-89
2022/10/13 12:42:25;;;;;;;;;;;;;;;15.06;76.81;97000.38;1717091;82;20095;-88
2022/10/13 12:44:50;;;;;;;;;;;;;;;15.04;77.51;97004.19;1704565;83;20159;-89
2022/10/13 12:47:46;;;;;;;;;;;;;;;14.99;77.46;96999.05;1717171;83;20137;-89
2022/10/13 12:50:28;;;;;;;;;;;;;;;14.97;78.24;96999.74;1721604;83;20141;-89
2022/10/13 12:53:09;;;;;;;;;;;;;;;14.93;77.94;97006.34;1721774;83;20137;-89
2022/10/13 12:55:37;;;;;;;;;;;;;;;14.88;78.51;97002.20;1716830;83;20133;-89
2022/10/13 12:58:02;;;;;;;;;;;;;;;14.85;79.06;97001.28;1714998;83;20115;-88
2022/10/13 13:00:29;;;;;;;;;;;;;;;14.84;78.49;97005.41;1708488;83;20126;-89
2022/10/13 13:02:57;;;;;;;;;;;;;;;14.83;79.10;97002.48;1715976;83;20358;-89
2022/10/13 13:05:38;;;;;;;;;;;;;;;14.84;78.13;97006.20;1712879;83;20126;-89
2022/10/13 13:08:06;;;;;;;;;;;;;;;14.86;79.35;97002.89;1708443;84;20332;-89